sensor_id;sensor_type;location;lat;lon;timestamp;pressure;altitude;pressure_sealevel;temperature;humidity
62849;BME280;48941;49.516;8.286;2023-03-22T00:01:52;100196.59;;;10.24;85.64
62849;BME280;48941;49.516;8.286;2023-03-22T00:04:20;100199.03;;;10.27;85.60
62849;BME280;48941;49.516;8.286;2023-03-22T00:06:59;100191.03;;;10.27;85.85
62849;BME280;48941;49.516;8.286;2023-03-22T00:09:27;100191.75;;;10.29;85.59
62849;BME280;48941;49.516;8.286;2023-03-22T00:11:55;100189.72;;;10.33;85.20
62849;BME280;48941;49.516;8.286;2023-03-22T00:14:23;100192.13;;;10.36;84.98
62849;BME280;48941;49.516;8.286;2023-03-22T00:16:51;100187.53;;;10.38;84.26
62849;BME280;48941;49.516;8.286;2023-03-22T00:19:18;100190.78;;;10.42;84.04
62849;BME280;48941;49.516;8.286;2023-03-22T00:21:46;100190.19;;;10.38;85.15
62849;BME280;48941;49.516;8.286;2023-03-22T00:24:15;100184.13;;;10.36;85.55
62849;BME280;48941;49.516;8.286;2023-03-22T00:26:43;100188.28;;;10.29;86.15
62849;BME280;48941;49.516;8.286;2023-03-22T00:29:12;100186.69;;;10.26;86.24
62849;BME280;48941;49.516;8.286;2023-03-22T00:31:40;100177.41;;;10.21;86.67
62849;BME280;48941;49.516;8.286;2023-03-22T00:34:08;100170.25;;;10.21;86.23
62849;BME280;48941;49.516;8.286;2023-03-22T00:36:36;100172.81;;;10.23;86.34
62849;BME280;48941;49.516;8.286;2023-03-22T00:39:03;100170.84;;;10.25;85.73
62849;BME280;48941;49.516;8.286;2023-03-22T00:41:32;100166.25;;;10.27;86.15
62849;BME280;48941;49.516;8.286;2023-03-22T00:44:00;100156.56;;;10.26;86.02
62849;BME280;48941;49.516;8.286;2023-03-22T00:46:28;100166.38;;;10.25;86.66
62849;BME280;48941;49.516;8.286;2023-03-22T00:48:56;100170.84;;;10.25;86.77
62849;BME280;48941;49.516;8.286;2023-03-22T00:51:23;100162.16;;;10.23;87.42
62849;BME280;48941;49.516;8.286;2023-03-22T00:53:51;100160.44;;;10.22;87.32
62849;BME280;48941;49.516;8.286;2023-03-22T00:56:20;100149.69;;;10.23;86.19
62849;BME280;48941;49.516;8.286;2023-03-22T00:58:52;100145.06;;;10.25;86.53
62849;BME280;48941;49.516;8.286;2023-03-22T01:01:19;100146.75;;;10.26;86.07
62849;BME280;48941;49.516;8.286;2023-03-22T01:03:47;100151.25;;;10.26;86.65
62849;BME280;48941;49.516;8.286;2023-03-22T01:06:16;100140.59;;;10.26;87.13
62849;BME280;48941;49.516;8.286;2023-03-22T01:08:44;100141.56;;;10.25;87.64
62849;BME280;48941;49.516;8.286;2023-03-22T01:11:12;100139.53;;;10.17;87.62
62849;BME280;48941;49.516;8.286;2023-03-22T01:13:39;100150.44;;;10.14;88.22
62849;BME280;48941;49.516;8.286;2023-03-22T01:16:09;100147.66;;;10.15;87.29
62849;BME280;48941;49.516;8.286;2023-03-22T01:18:37;100142.09;;;10.19;86.83
62849;BME280;48941;49.516;8.286;2023-03-22T01:21:05;100140.97;;;10.21;86.15
62849;BME280;48941;49.516;8.286;2023-03-22T01:23:34;100144.25;;;10.25;85.80
62849;BME280;48941;49.516;8.286;2023-03-22T01:26:02;100135.97;;;10.28;85.78
62849;BME280;48941;49.516;8.286;2023-03-22T01:28:30;100131.41;;;10.30;85.28
62849;BME280;48941;49.516;8.286;2023-03-22T01:31:00;100134.06;;;10.30;85.39
62849;BME280;48941;49.516;8.286;2023-03-22T01:33:29;100129.69;;;10.29;85.31
62849;BME280;48941;49.516;8.286;2023-03-22T01:35:57;100119.41;;;10.24;85.21
62849;BME280;48941;49.516;8.286;2023-03-22T01:38:25;100126.56;;;10.24;84.72
62849;BME280;48941;49.516;8.286;2023-03-22T01:40:53;100121.34;;;10.22;84.89
62849;BME280;48941;49.516;8.286;2023-03-22T01:43:21;100119.69;;;10.21;84.67
62849;BME280;48941;49.516;8.286;2023-03-22T01:45:49;100119.81;;;10.20;84.42
62849;BME280;48941;49.516;8.286;2023-03-22T01:48:22;100126.47;;;10.14;84.48
62849;BME280;48941;49.516;8.286;2023-03-22T01:51:03;100123.09;;;10.12;84.35
62849;BME280;48941;49.516;8.286;2023-03-22T01:53:36;100123.38;;;10.09;84.52
62849;BME280;48941;49.516;8.286;2023-03-22T01:56:07;100120.81;;;10.07;84.73
62849;BME280;48941;49.516;8.286;2023-03-22T01:58:37;100123.59;;;10.06;84.79
62849;BME280;48941;49.516;8.286;2023-03-22T02:01:07;100126.53;;;10.03;84.74
62849;BME280;48941;49.516;8.286;2023-03-22T02:03:42;100115.28;;;9.99;84.77
62849;BME280;48941;49.516;8.286;2023-03-22T02:06:13;100121.44;;;10.00;84.74
62849;BME280;48941;49.516;8.286;2023-03-22T02:08:40;100120.63;;;9.99;85.06
62849;BME280;48941;49.516;8.286;2023-03-22T02:11:12;100117.25;;;9.97;85.34
62849;BME280;48941;49.516;8.286;2023-03-22T02:13:55;100114.69;;;9.95;85.20
62849;BME280;48941;49.516;8.286;2023-03-22T02:16:36;100113.84;;;9.95;85.35
62849;BME280;48941;49.516;8.286;2023-03-22T02:19:31;100104.78;;;9.97;85.03
62849;BME280;48941;49.516;8.286;2023-03-22T02:22:26;100108.25;;;9.98;85.08
62849;BME280;48941;49.516;8.286;2023-03-22T02:28:14;100099.44;;;9.97;85.52
62849;BME280;48941;49.516;8.286;2023-03-22T02:30:58;100112.03;;;9.95;85.33
62849;BME280;48941;49.516;8.286;2023-03-22T02:33:39;100106.59;;;9.97;85.43
62849;BME280;48941;49.516;8.286;2023-03-22T02:36:34;100106.31;;;10.00;85.88
62849;BME280;48941;49.516;8.286;2023-03-22T02:39:30;100109.97;;;9.99;85.47
62849;BME280;48941;49.516;8.286;2023-03-22T02:42:10;100108.41;;;9.96;85.66
62849;BME280;48941;49.516;8.286;2023-03-22T02:44:44;100103.09;;;9.96;85.80
62849;BME280;48941;49.516;8.286;2023-03-22T02:47:20;100108.16;;;10.00;85.92
62849;BME280;48941;49.516;8.286;2023-03-22T02:49:54;100099.22;;;10.01;85.61
62849;BME280;48941;49.516;8.286;2023-03-22T02:52:28;100107.31;;;9.99;86.03
62849;BME280;48941;49.516;8.286;2023-03-22T02:55:03;100099.44;;;9.97;85.92
62849;BME280;48941;49.516;8.286;2023-03-22T02:57:36;100101.28;;;9.97;86.12
62849;BME280;48941;49.516;8.286;2023-03-22T03:00:05;100095.22;;;9.95;86.21
62849;BME280;48941;49.516;8.286;2023-03-22T03:02:40;100096.19;;;9.94;85.95
62849;BME280;48941;49.516;8.286;2023-03-22T03:05:09;100091.00;;;9.92;86.79
62849;BME280;48941;49.516;8.286;2023-03-22T03:07:40;100088.59;;;9.89;86.88
62849;BME280;48941;49.516;8.286;2023-03-22T03:10:12;100083.16;;;9.91;86.28
62849;BME280;48941;49.516;8.286;2023-03-22T03:12:41;100085.66;;;9.92;86.37
62849;BME280;48941;49.516;8.286;2023-03-22T03:15:11;100085.94;;;9.89;86.26
62849;BME280;48941;49.516;8.286;2023-03-22T03:17:53;100080.72;;;9.88;86.37
62849;BME280;48941;49.516;8.286;2023-03-22T03:20:30;100081.72;;;9.87;86.04
62849;BME280;48941;49.516;8.286;2023-03-22T03:23:11;100080.03;;;9.86;86.20
62849;BME280;48941;49.516;8.286;2023-03-22T03:25:47;100079.31;;;9.84;86.29
62849;BME280;48941;49.516;8.286;2023-03-22T03:28:23;100086.31;;;9.85;86.22
62849;BME280;48941;49.516;8.286;2023-03-22T03:30:59;100090.78;;;9.84;86.39
62849;BME280;48941;49.516;8.286;2023-03-22T03:33:31;100082.06;;;9.82;86.54
62849;BME280;48941;49.516;8.286;2023-03-22T03:36:03;100077.75;;;9.81;86.63
62849;BME280;48941;49.516;8.286;2023-03-22T03:38:33;100083.06;;;9.81;86.56
62849;BME280;48941;49.516;8.286;2023-03-22T03:41:07;100083.06;;;9.81;86.75
62849;BME280;48941;49.516;8.286;2023-03-22T03:43:36;100083.91;;;9.82;86.60
62849;BME280;48941;49.516;8.286;2023-03-22T03:46:06;100083.06;;;9.81;86.76
62849;BME280;48941;49.516;8.286;2023-03-22T03:48:35;100076.03;;;9.80;86.63
62849;BME280;48941;49.516;8.286;2023-03-22T03:51:04;100074.38;;;9.79;86.93
62849;BME280;48941;49.516;8.286;2023-03-22T03:53:32;100089.50;;;9.79;86.99
62849;BME280;48941;49.516;8.286;2023-03-22T03:56:00;100077.16;;;9.77;86.80
62849;BME280;48941;49.516;8.286;2023-03-22T03:58:29;100071.81;;;9.77;86.73
62849;BME280;48941;49.516;8.286;2023-03-22T04:00:57;100073.66;;;9.77;87.19
62849;BME280;48941;49.516;8.286;2023-03-22T04:03:25;100067.59;;;9.75;86.78
62849;BME280;48941;49.516;8.286;2023-03-22T04:05:53;100071.22;;;9.74;87.07
62849;BME280;48941;49.516;8.286;2023-03-22T04:08:21;100062.53;;;9.72;86.92
62849;BME280;48941;49.516;8.286;2023-03-22T04:10:49;100070.50;;;9.72;86.87
62849;BME280;48941;49.516;8.286;2023-03-22T04:13:17;100066.28;;;9.69;87.25
62849;BME280;48941;49.516;8.286;2023-03-22T04:15:51;100061.81;;;9.70;87.05
62849;BME280;48941;49.516;8.286;2023-03-22T04:18:19;100050.44;;;9.68;87.17
62849;BME280;48941;49.516;8.286;2023-03-22T04:20:47;100059.41;;;9.67;87.64
62849;BME280;48941;49.516;8.286;2023-03-22T04:23:18;100054.09;;;9.67;87.48
62849;BME280;48941;49.516;8.286;2023-03-22T04:25:48;100052.50;;;9.64;87.29
62849;BME280;48941;49.516;8.286;2023-03-22T04:28:16;100045.53;;;9.63;87.64
62849;BME280;48941;49.516;8.286;2023-03-22T04:30:45;100046.47;;;9.62;87.87
62849;BME280;48941;49.516;8.286;2023-03-22T04:33:17;100034.41;;;9.58;87.59
62849;BME280;48941;49.516;8.286;2023-03-22T04:35:48;100033.09;;;9.52;88.18
62849;BME280;48941;49.516;8.286;2023-03-22T04:38:22;100032.75;;;9.46;88.22
62849;BME280;48941;49.516;8.286;2023-03-22T04:40:51;100040.84;;;9.44;88.80
62849;BME280;48941;49.516;8.286;2023-03-22T04:43:19;100045.81;;;9.37;88.84
62849;BME280;48941;49.516;8.286;2023-03-22T04:45:47;100041.59;;;9.35;88.99
62849;BME280;48941;49.516;8.286;2023-03-22T04:48:15;100037.63;;;9.29;89.67
62849;BME280;48941;49.516;8.286;2023-03-22T04:50:44;100038.13;;;9.23;89.94
62849;BME280;48941;49.516;8.286;2023-03-22T04:53:12;100038.47;;;9.18;90.35
62849;BME280;48941;49.516;8.286;2023-03-22T04:55:40;100033.53;;;9.14;90.40
62849;BME280;48941;49.516;8.286;2023-03-22T04:58:09;100035.84;;;9.07;91.07
62849;BME280;48941;49.516;8.286;2023-03-22T05:00:36;100034.41;;;9.03;91.01
62849;BME280;48941;49.516;8.286;2023-03-22T05:03:04;100037.28;;;9.00;91.36
62849;BME280;48941;49.516;8.286;2023-03-22T05:05:32;100040.41;;;8.94;91.21
62849;BME280;48941;49.516;8.286;2023-03-22T05:08:01;100032.81;;;8.89;91.36
62849;BME280;48941;49.516;8.286;2023-03-22T05:10:29;100042.94;;;8.84;91.13
62849;BME280;48941;49.516;8.286;2023-03-22T05:12:57;100039.81;;;8.79;91.25
62849;BME280;48941;49.516;8.286;2023-03-22T05:15:24;100030.53;;;8.73;91.38
62849;BME280;48941;49.516;8.286;2023-03-22T05:17:52;100043.31;;;8.68;91.14
62849;BME280;48941;49.516;8.286;2023-03-22T05:20:21;100047.06;;;8.66;91.03
62849;BME280;48941;49.516;8.286;2023-03-22T05:22:48;100050.06;;;8.61;90.92
62849;BME280;48941;49.516;8.286;2023-03-22T05:25:18;100054.75;;;8.57;90.97
62849;BME280;48941;49.516;8.286;2023-03-22T05:27:45;100058.72;;;8.52;91.02
62849;BME280;48941;49.516;8.286;2023-03-22T05:30:15;100055.47;;;8.48;91.53
62849;BME280;48941;49.516;8.286;2023-03-22T05:32:43;100055.81;;;8.44;91.27
62849;BME280;48941;49.516;8.286;2023-03-22T05:35:11;100053.72;;;8.36;91.80
62849;BME280;48941;49.516;8.286;2023-03-22T05:37:39;100059.50;;;8.30;91.80
62849;BME280;48941;49.516;8.286;2023-03-22T05:40:08;100057.94;;;8.27;92.08
62849;BME280;48941;49.516;8.286;2023-03-22T05:42:37;100059.97;;;8.24;91.94
62849;BME280;48941;49.516;8.286;2023-03-22T05:45:08;100058.41;;;8.21;92.28
62849;BME280;48941;49.516;8.286;2023-03-22T05:47:36;100065.63;;;8.19;92.39
62849;BME280;48941;49.516;8.286;2023-03-22T05:50:06;100063.91;;;8.18;92.52
62849;BME280;48941;49.516;8.286;2023-03-22T05:52:34;100069.22;;;8.18;92.86
62849;BME280;48941;49.516;8.286;2023-03-22T05:55:03;100063.09;;;8.17;92.80
62849;BME280;48941;49.516;8.286;2023-03-22T05:57:31;100063.91;;;8.18;93.00
62849;BME280;48941;49.516;8.286;2023-03-22T06:00:00;100068.38;;;8.17;92.55
62849;BME280;48941;49.516;8.286;2023-03-22T06:02:29;100062.09;;;8.18;92.38
62849;BME280;48941;49.516;8.286;2023-03-22T06:04:57;100064.66;;;8.20;92.40
62849;BME280;48941;49.516;8.286;2023-03-22T06:07:25;100067.66;;;8.15;92.38
62849;BME280;48941;49.516;8.286;2023-03-22T06:09:52;100051.63;;;8.17;92.78
62849;BME280;48941;49.516;8.286;2023-03-22T06:12:20;100055.75;;;8.21;92.55
62849;BME280;48941;49.516;8.286;2023-03-22T06:14:50;100052.00;;;8.24;92.52
62849;BME280;48941;49.516;8.286;2023-03-22T06:17:19;100052.72;;;8.26;92.20
62849;BME280;48941;49.516;8.286;2023-03-22T06:19:47;100057.81;;;8.29;92.63
62849;BME280;48941;49.516;8.286;2023-03-22T06:22:17;100047.69;;;8.34;92.15
62849;BME280;48941;49.516;8.286;2023-03-22T06:24:45;100047.69;;;8.34;92.41
62849;BME280;48941;49.516;8.286;2023-03-22T06:27:13;100046.59;;;8.36;91.88
62849;BME280;48941;49.516;8.286;2023-03-22T06:29:41;100055.19;;;8.40;91.88
62849;BME280;48941;49.516;8.286;2023-03-22T06:32:09;100055.72;;;8.45;91.90
62849;BME280;48941;49.516;8.286;2023-03-22T06:34:39;100057.06;;;8.51;91.66
62849;BME280;48941;49.516;8.286;2023-03-22T06:37:07;100055.72;;;8.56;91.65
62849;BME280;48941;49.516;8.286;2023-03-22T06:39:34;100052.47;;;8.64;91.43
62849;BME280;48941;49.516;8.286;2023-03-22T06:42:02;100068.66;;;8.72;90.93
62849;BME280;48941;49.516;8.286;2023-03-22T06:44:30;100066.25;;;8.81;90.84
62849;BME280;48941;49.516;8.286;2023-03-22T06:46:58;100065.66;;;8.88;90.39
62849;BME280;48941;49.516;8.286;2023-03-22T06:49:26;100065.78;;;8.98;90.01
62849;BME280;48941;49.516;8.286;2023-03-22T06:51:55;100071.31;;;9.06;90.08
62849;BME280;48941;49.516;8.286;2023-03-22T06:54:22;100074.09;;;9.16;89.27
62849;BME280;48941;49.516;8.286;2023-03-22T06:56:50;100077.59;;;9.28;88.97
62849;BME280;48941;49.516;8.286;2023-03-22T06:59:18;100074.22;;;9.37;88.52
62849;BME280;48941;49.516;8.286;2023-03-22T07:01:46;100072.50;;;9.47;88.04
62849;BME280;48941;49.516;8.286;2023-03-22T07:04:14;100076.94;;;9.58;87.16
62849;BME280;48941;49.516;8.286;2023-03-22T07:06:42;100076.22;;;9.67;87.38
62849;BME280;48941;49.516;8.286;2023-03-22T07:09:11;100079.81;;;9.77;86.83
62849;BME280;48941;49.516;8.286;2023-03-22T07:11:39;100077.25;;;9.87;85.88
62849;BME280;48941;49.516;8.286;2023-03-22T07:14:06;100075.63;;;9.96;85.67
62849;BME280;48941;49.516;8.286;2023-03-22T07:16:34;100080.31;;;10.04;85.77
62849;BME280;48941;49.516;8.286;2023-03-22T07:19:02;100079.16;;;10.17;85.21
62849;BME280;48941;49.516;8.286;2023-03-22T07:21:30;100080.59;;;10.33;84.37
62849;BME280;48941;49.516;8.286;2023-03-22T07:23:58;100083.63;;;10.49;83.80
62849;BME280;48941;49.516;8.286;2023-03-22T07:26:27;100089.94;;;10.69;82.94
62849;BME280;48941;49.516;8.286;2023-03-22T07:28:56;100081.47;;;10.85;82.06
62849;BME280;48941;49.516;8.286;2023-03-22T07:31:23;100082.81;;;11.01;81.42
62849;BME280;48941;49.516;8.286;2023-03-22T07:33:51;100087.31;;;11.10;81.02
62849;BME280;48941;49.516;8.286;2023-03-22T07:36:19;100081.50;;;11.26;80.74
62849;BME280;48941;49.516;8.286;2023-03-22T07:38:49;100090.25;;;11.38;79.89
62849;BME280;48941;49.516;8.286;2023-03-22T07:41:17;100079.16;;;11.42;80.01
62849;BME280;48941;49.516;8.286;2023-03-22T07:43:46;100079.91;;;11.54;79.41
62849;BME280;48941;49.516;8.286;2023-03-22T07:46:25;100081.06;;;11.71;79.66
62849;BME280;48941;49.516;8.286;2023-03-22T07:48:53;100077.84;;;11.87;79.34
62849;BME280;48941;49.516;8.286;2023-03-22T07:51:21;100074.94;;;12.09;78.01
62849;BME280;48941;49.516;8.286;2023-03-22T07:53:48;100081.13;;;12.29;77.24
62849;BME280;48941;49.516;8.286;2023-03-22T07:56:16;100073.25;;;12.38;77.41
62849;BME280;48941;49.516;8.286;2023-03-22T07:58:45;100074.63;;;12.51;77.04
62849;BME280;48941;49.516;8.286;2023-03-22T08:01:13;100075.03;;;12.76;75.56
62849;BME280;48941;49.516;8.286;2023-03-22T08:03:41;100078.16;;;12.99;74.72
62849;BME280;48941;49.516;8.286;2023-03-22T08:06:09;100076.13;;;13.21;73.19
62849;BME280;48941;49.516;8.286;2023-03-22T08:08:37;100075.06;;;13.41;72.58
62849;BME280;48941;49.516;8.286;2023-03-22T08:11:06;100070.75;;;13.58;71.61
62849;BME280;48941;49.516;8.286;2023-03-22T08:13:34;100069.63;;;13.79;71.74
62849;BME280;48941;49.516;8.286;2023-03-22T08:16:05;100058.47;;;14.01;70.17
62849;BME280;48941;49.516;8.286;2023-03-22T08:18:33;100063.13;;;14.17;69.99
62849;BME280;48941;49.516;8.286;2023-03-22T08:21:01;100059.25;;;14.38;68.40
62849;BME280;48941;49.516;8.286;2023-03-22T08:23:29;100049.81;;;14.69;66.19
62849;BME280;48941;49.516;8.286;2023-03-22T08:26:07;100058.88;;;15.03;61.18
62849;BME280;48941;49.516;8.286;2023-03-22T08:28:36;100052.88;;;15.09;61.29
62849;BME280;48941;49.516;8.286;2023-03-22T08:31:11;100053.94;;;15.16;61.22
62849;BME280;48941;49.516;8.286;2023-03-22T08:33:41;100053.75;;;15.18;61.83
62849;BME280;48941;49.516;8.286;2023-03-22T08:36:11;100058.44;;;15.16;62.49
62849;BME280;48941;49.516;8.286;2023-03-22T08:38:39;100056.91;;;15.13;62.61
62849;BME280;48941;49.516;8.286;2023-03-22T08:41:08;100057.28;;;15.18;62.14
62849;BME280;48941;49.516;8.286;2023-03-22T08:43:36;100052.72;;;15.10;61.93
62849;BME280;48941;49.516;8.286;2023-03-22T08:46:04;100050.00;;;15.02;62.64
62849;BME280;48941;49.516;8.286;2023-03-22T08:48:33;100054.94;;;14.89;62.98
62849;BME280;48941;49.516;8.286;2023-03-22T08:51:04;100050.06;;;14.84;62.38
62849;BME280;48941;49.516;8.286;2023-03-22T08:53:32;100055.88;;;14.80;62.83
62849;BME280;48941;49.516;8.286;2023-03-22T08:56:00;100050.75;;;14.60;63.56
62849;BME280;48941;49.516;8.286;2023-03-22T08:58:29;100042.78;;;14.50;64.64
62849;BME280;48941;49.516;8.286;2023-03-22T09:00:56;100050.78;;;14.42;64.79
62849;BME280;48941;49.516;8.286;2023-03-22T09:03:24;100051.75;;;14.41;65.23
62849;BME280;48941;49.516;8.286;2023-03-22T09:05:54;100044.72;;;14.40;65.11
62849;BME280;48941;49.516;8.286;2023-03-22T09:08:21;100043.56;;;14.43;65.14
62849;BME280;48941;49.516;8.286;2023-03-22T09:10:49;100037.59;;;14.49;64.51
62849;BME280;48941;49.516;8.286;2023-03-22T09:13:18;100035.72;;;14.67;64.10
62849;BME280;48941;49.516;8.286;2023-03-22T09:15:46;100024.94;;;14.85;62.32
62849;BME280;48941;49.516;8.286;2023-03-22T09:18:14;100020.00;;;15.07;60.24
62849;BME280;48941;49.516;8.286;2023-03-22T09:20:42;100026.44;;;15.22;60.86
62849;BME280;48941;49.516;8.286;2023-03-22T09:23:12;100030.69;;;15.41;58.55
62849;BME280;48941;49.516;8.286;2023-03-22T09:25:41;100016.97;;;15.44;56.44
62849;BME280;48941;49.516;8.286;2023-03-22T09:28:10;100011.09;;;15.57;56.35
62849;BME280;48941;49.516;8.286;2023-03-22T09:30:38;100015.47;;;15.58;55.99
62849;BME280;48941;49.516;8.286;2023-03-22T09:33:06;100009.44;;;15.56;56.92
62849;BME280;48941;49.516;8.286;2023-03-22T09:35:34;100006.63;;;15.66;57.33
62849;BME280;48941;49.516;8.286;2023-03-22T09:38:01;100007.66;;;15.73;56.55
62849;BME280;48941;49.516;8.286;2023-03-22T09:40:34;100010.84;;;15.77;55.81
62849;BME280;48941;49.516;8.286;2023-03-22T09:43:05;100010.53;;;15.80;56.57
62849;BME280;48941;49.516;8.286;2023-03-22T09:45:36;99995.41;;;15.79;54.86
62849;BME280;48941;49.516;8.286;2023-03-22T09:48:10;99991.88;;;15.78;53.75
62849;BME280;48941;49.516;8.286;2023-03-22T09:50:43;100001.28;;;15.74;53.97
62849;BME280;48941;49.516;8.286;2023-03-22T09:53:13;100004.13;;;15.89;53.28
62849;BME280;48941;49.516;8.286;2023-03-22T09:55:46;99998.09;;;15.95;52.51
62849;BME280;48941;49.516;8.286;2023-03-22T09:58:23;99992.72;;;15.95;52.41
62849;BME280;48941;49.516;8.286;2023-03-22T10:00:56;99990.38;;;16.08;52.60
62849;BME280;48941;49.516;8.286;2023-03-22T10:03:37;99980.81;;;16.14;51.67
62849;BME280;48941;49.516;8.286;2023-03-22T10:06:13;99985.66;;;16.35;51.04
62849;BME280;48941;49.516;8.286;2023-03-22T10:08:50;99971.13;;;16.69;50.38
62849;BME280;48941;49.516;8.286;2023-03-22T10:11:33;99975.59;;;16.93;48.60
62849;BME280;48941;49.516;8.286;2023-03-22T10:14:13;99975.72;;;17.08;48.38
62849;BME280;48941;49.516;8.286;2023-03-22T10:16:47;99964.81;;;17.32;47.94
62849;BME280;48941;49.516;8.286;2023-03-22T10:19:19;99963.72;;;17.50;48.02
62849;BME280;48941;49.516;8.286;2023-03-22T10:21:51;99968.25;;;17.72;48.55
62849;BME280;48941;49.516;8.286;2023-03-22T10:24:23;99970.91;;;18.04;46.82
62849;BME280;48941;49.516;8.286;2023-03-22T10:26:55;99969.69;;;18.06;46.40
62849;BME280;48941;49.516;8.286;2023-03-22T10:29:25;99973.63;;;18.19;45.96
62849;BME280;48941;49.516;8.286;2023-03-22T10:32:09;99970.69;;;18.28;45.46
62849;BME280;48941;49.516;8.286;2023-03-22T10:34:38;99984.09;;;18.51;45.59
62849;BME280;48941;49.516;8.286;2023-03-22T10:37:11;99968.38;;;18.70;44.24
62849;BME280;48941;49.516;8.286;2023-03-22T10:39:41;99975.25;;;18.73;43.48
62849;BME280;48941;49.516;8.286;2023-03-22T10:42:15;99955.84;;;18.77;42.96
62849;BME280;48941;49.516;8.286;2023-03-22T10:44:46;99961.31;;;18.69;43.47
62849;BME280;48941;49.516;8.286;2023-03-22T10:47:18;99976.78;;;18.90;43.76
62849;BME280;48941;49.516;8.286;2023-03-22T10:49:51;99965.25;;;18.96;42.66
62849;BME280;48941;49.516;8.286;2023-03-22T10:52:35;99960.78;;;18.88;43.54
62849;BME280;48941;49.516;8.286;2023-03-22T10:55:08;99961.59;;;19.04;43.04
62849;BME280;48941;49.516;8.286;2023-03-22T10:57:38;99962.97;;;19.15;43.50
62849;BME280;48941;49.516;8.286;2023-03-22T11:00:09;99961.91;;;19.30;43.65
62849;BME280;48941;49.516;8.286;2023-03-22T11:02:45;99961.53;;;19.34;42.74
62849;BME280;48941;49.516;8.286;2023-03-22T11:05:20;99950.16;;;19.38;42.73
62849;BME280;48941;49.516;8.286;2023-03-22T11:07:49;99941.56;;;19.49;42.57
62849;BME280;48941;49.516;8.286;2023-03-22T11:10:28;99945.78;;;19.59;40.60
62849;BME280;48941;49.516;8.286;2023-03-22T11:13:16;99940.38;;;19.74;40.79
62849;BME280;48941;49.516;8.286;2023-03-22T11:15:53;99934.38;;;19.78;40.47
62849;BME280;48941;49.516;8.286;2023-03-22T11:18:23;99930.75;;;19.93;39.84
62849;BME280;48941;49.516;8.286;2023-03-22T11:20:56;99936.97;;;20.15;39.30
62849;BME280;48941;49.516;8.286;2023-03-22T11:23:24;99942.44;;;20.21;39.17
62849;BME280;48941;49.516;8.286;2023-03-22T11:25:55;99931.31;;;20.38;40.09
62849;BME280;48941;49.516;8.286;2023-03-22T11:28:31;99932.25;;;20.58;40.20
62849;BME280;48941;49.516;8.286;2023-03-22T11:31:04;99926.34;;;20.76;38.65
62849;BME280;48941;49.516;8.286;2023-03-22T11:33:33;99919.66;;;20.72;38.72
62849;BME280;48941;49.516;8.286;2023-03-22T11:36:04;99916.81;;;20.52;38.68
62849;BME280;48941;49.516;8.286;2023-03-22T11:38:41;99912.53;;;20.29;39.33
62849;BME280;48941;49.516;8.286;2023-03-22T11:41:19;99908.72;;;20.17;39.01
62849;BME280;48941;49.516;8.286;2023-03-22T11:43:53;99903.66;;;20.07;39.09
62849;BME280;48941;49.516;8.286;2023-03-22T11:46:22;99901.25;;;20.19;39.08
62849;BME280;48941;49.516;8.286;2023-03-22T11:48:55;99895.09;;;20.39;38.70
62849;BME280;48941;49.516;8.286;2023-03-22T11:51:28;99897.44;;;20.48;38.48
62849;BME280;48941;49.516;8.286;2023-03-22T11:54:07;99899.03;;;20.64;38.44
62849;BME280;48941;49.516;8.286;2023-03-22T11:56:40;99899.97;;;20.85;37.75
62849;BME280;48941;49.516;8.286;2023-03-22T11:59:14;99896.06;;;21.01;37.41
62849;BME280;48941;49.516;8.286;2023-03-22T12:01:47;99896.13;;;21.21;37.54
62849;BME280;48941;49.516;8.286;2023-03-22T12:04:21;99887.38;;;21.32;37.08
62849;BME280;48941;49.516;8.286;2023-03-22T12:06:55;99873.84;;;21.32;35.85
62849;BME280;48941;49.516;8.286;2023-03-22T12:09:24;99884.34;;;21.55;36.01
62849;BME280;48941;49.516;8.286;2023-03-22T12:11:56;99877.66;;;21.78;35.31
62849;BME280;48941;49.516;8.286;2023-03-22T12:14:28;99880.16;;;21.86;34.42
62849;BME280;48941;49.516;8.286;2023-03-22T12:17:04;99872.88;;;21.80;34.66
62849;BME280;48941;49.516;8.286;2023-03-22T12:19:46;99871.84;;;21.61;34.17
62849;BME280;48941;49.516;8.286;2023-03-22T12:22:20;99874.34;;;21.69;33.72
62849;BME280;48941;49.516;8.286;2023-03-22T12:24:49;99868.50;;;21.79;32.95
62849;BME280;48941;49.516;8.286;2023-03-22T12:27:20;99849.53;;;21.79;32.45
62849;BME280;48941;49.516;8.286;2023-03-22T12:29:56;99864.13;;;21.78;33.48
62849;BME280;48941;49.516;8.286;2023-03-22T12:32:26;99853.06;;;21.73;33.55
62849;BME280;48941;49.516;8.286;2023-03-22T12:34:56;99868.28;;;21.87;32.98
62849;BME280;48941;49.516;8.286;2023-03-22T12:37:43;99848.06;;;21.70;33.02
62849;BME280;48941;49.516;8.286;2023-03-22T12:40:19;99847.44;;;21.47;33.54
62849;BME280;48941;49.516;8.286;2023-03-22T12:42:53;99839.88;;;21.23;33.93
62849;BME280;48941;49.516;8.286;2023-03-22T12:45:29;99838.41;;;21.07;34.47
62849;BME280;48941;49.516;8.286;2023-03-22T12:48:05;99838.50;;;20.79;35.26
62849;BME280;48941;49.516;8.286;2023-03-22T12:50:37;99830.91;;;20.54;35.13
62849;BME280;48941;49.516;8.286;2023-03-22T12:53:11;99837.00;;;20.28;36.28
62849;BME280;48941;49.516;8.286;2023-03-22T12:55:41;99823.38;;;20.08;35.88
62849;BME280;48941;49.516;8.286;2023-03-22T12:58:12;99833.09;;;19.96;35.70
62849;BME280;48941;49.516;8.286;2023-03-22T13:00:46;99822.47;;;19.94;36.07
62849;BME280;48941;49.516;8.286;2023-03-22T13:03:23;99823.22;;;19.81;35.53
62849;BME280;48941;49.516;8.286;2023-03-22T13:06:01;99819.13;;;19.70;34.77
62849;BME280;48941;49.516;8.286;2023-03-22T13:11:35;99814.63;;;19.49;36.80
62849;BME280;48941;49.516;8.286;2023-03-22T13:14:03;99817.47;;;19.41;37.61
62849;BME280;48941;49.516;8.286;2023-03-22T13:16:50;99820.31;;;19.33;38.06
62849;BME280;48941;49.516;8.286;2023-03-22T13:19:36;99812.59;;;19.30;36.91
62849;BME280;48941;49.516;8.286;2023-03-22T13:22:25;99812.91;;;19.20;37.24
62849;BME280;48941;49.516;8.286;2023-03-22T13:24:59;99810.22;;;19.20;37.13